Weather at Breezy Meadows Heliport [CLOSED]

Public forecast

Using degrees Fahrenheit for public forecast. Weather courtesy of forecast.io.

Closest aviation weather report (METAR) to Breezy Meadows Heliport

Closest report is Watertown International Airport, 12.1 nm (22.5 km) ESE.

2024/07/22 22:56 (retrieved 59 minutes ago)

KART 222256Z AUTO 00000KT 10SM SCT090 27/17 A2996 RMK AO2 SLP140 T02720172

Closest aviation forecast (TAF) to Breezy Meadows Heliport

Closest forecast is Watertown International Airport, 12.1 nm (22.5 km) ESE.

2024/07/22 18:22 (retrieved 6 hours ago)

TAF KART 221720Z 2218/2318 23006KT P6SM SCT080 FM222300 VRB04KT P6SM BKN200 FM230300 15005KT P6SM VCSH OVC070 FM231200 20005KT P6SM BKN100